createdAt,value
2018-12-17T00:00:54.805Z,13.00
2018-12-17T00:03:36.380Z,12.90
2018-12-17T00:06:17.860Z,12.80
2018-12-17T00:08:59.564Z,12.80
2018-12-17T00:11:41.352Z,12.90
2018-12-17T00:14:22.830Z,12.80
2018-12-17T00:17:05.241Z,12.80
2018-12-17T00:19:47.136Z,12.80
2018-12-17T00:22:28.723Z,12.80
2018-12-17T00:25:10.131Z,12.90
2018-12-17T00:27:51.803Z,12.90
2018-12-17T00:30:33.430Z,12.90
2018-12-17T00:33:15.021Z,12.90
2018-12-17T00:35:56.669Z,12.90
2018-12-17T00:38:38.154Z,12.90
2018-12-17T00:41:20.869Z,13.00
2018-12-17T00:44:02.586Z,12.90
2018-12-17T00:46:45.072Z,12.90
2018-12-17T00:49:26.910Z,12.80
2018-12-17T00:52:08.555Z,12.80
2018-12-17T00:54:49.959Z,12.80
2018-12-17T00:57:31.949Z,12.70
2018-12-17T01:00:13.529Z,12.70
2018-12-17T01:02:55.256Z,12.70
2018-12-17T01:05:36.584Z,12.70
2018-12-17T01:08:18.291Z,12.80
2018-12-17T01:11:00.020Z,12.70
2018-12-17T01:13:41.675Z,12.70
2018-12-17T01:16:23.003Z,12.60
2018-12-17T01:19:05.162Z,12.60
2018-12-17T01:21:46.646Z,12.70
2018-12-17T01:24:28.236Z,12.60
2018-12-17T01:27:10.658Z,12.60
2018-12-17T01:29:52.772Z,12.70
2018-12-17T01:32:34.438Z,12.60
2018-12-17T01:35:15.818Z,12.60
2018-12-17T01:38:02.329Z,12.50
2018-12-17T01:40:49.132Z,12.50
2018-12-17T01:43:31.029Z,12.40
2018-12-17T01:46:12.328Z,12.40
2018-12-17T01:48:54.040Z,12.40
2018-12-17T01:51:35.703Z,12.30
2018-12-17T01:54:18.028Z,12.30
2018-12-17T01:56:59.949Z,12.30
2018-12-17T01:59:41.483Z,12.20
2018-12-17T02:02:23.075Z,12.30
2018-12-17T02:05:04.865Z,12.20
2018-12-17T02:07:46.459Z,12.20
2018-12-17T02:10:28.042Z,12.20
2018-12-17T02:13:09.656Z,12.20
2018-12-17T02:15:51.140Z,12.30
2018-12-17T02:18:32.911Z,12.30
2018-12-17T02:21:14.602Z,12.30
2018-12-17T02:23:56.396Z,12.20
2018-12-17T02:26:37.785Z,12.20
2018-12-17T02:29:20.436Z,12.20
2018-12-17T02:32:02.085Z,12.20
2018-12-17T02:34:44.799Z,12.10
2018-12-17T02:37:26.591Z,12.10
2018-12-17T02:40:08.287Z,12.10
2018-12-17T02:42:50.078Z,12.10
2018-12-17T02:45:31.766Z,12.00
2018-12-17T02:48:13.274Z,12.00
2018-12-17T02:50:54.945Z,12.00
2018-12-17T02:53:36.782Z,12.00
2018-12-17T02:56:18.339Z,12.00
2018-12-17T02:58:59.918Z,12.00
2018-12-17T03:01:41.916Z,11.90
2018-12-17T03:04:23.196Z,12.00
2018-12-17T03:07:04.886Z,11.90
2018-12-17T03:09:46.585Z,11.90
2018-12-17T03:12:28.885Z,11.90
2018-12-17T03:15:10.575Z,11.80
2018-12-17T03:17:52.059Z,11.80
2018-12-17T03:20:33.962Z,11.70
2018-12-17T03:23:15.560Z,11.60
2018-12-17T03:25:57.780Z,11.60
2018-12-17T03:28:38.926Z,11.60
2018-12-17T03:31:21.031Z,11.50
2018-12-17T03:34:02.207Z,11.50
2018-12-17T03:36:43.496Z,11.40
2018-12-17T03:39:25.424Z,11.40
2018-12-17T03:42:07.077Z,11.40
2018-12-17T03:44:48.771Z,11.40
2018-12-17T03:47:31.612Z,11.30
2018-12-17T03:50:13.910Z,11.30
2018-12-17T03:52:56.675Z,11.30
2018-12-17T03:55:37.682Z,11.30
2018-12-17T03:58:19.651Z,11.40
2018-12-17T04:01:00.863Z,11.40
2018-12-17T04:03:42.989Z,11.40
2018-12-17T04:06:24.550Z,11.40
2018-12-17T04:09:05.727Z,11.50
2018-12-17T04:11:47.315Z,11.40
2018-12-17T04:14:29.007Z,11.40
2018-12-17T04:17:10.800Z,11.40
2018-12-17T04:19:52.450Z,11.30
2018-12-17T04:22:34.210Z,11.30
2018-12-17T04:25:15.671Z,11.20
2018-12-17T04:27:57.187Z,11.30
2018-12-17T04:30:38.581Z,11.20
2018-12-17T04:33:20.332Z,11.20
2018-12-17T04:36:02.537Z,11.20
2018-12-17T04:38:43.718Z,11.20
2018-12-17T04:41:25.305Z,11.20
2018-12-17T04:44:06.953Z,11.10
2018-12-17T04:46:48.692Z,11.10
2018-12-17T04:49:30.383Z,11.10
2018-12-17T04:52:11.966Z,11.10
2018-12-17T04:54:53.452Z,11.10
2018-12-17T04:57:35.246Z,11.00
2018-12-17T05:00:16.845Z,11.00
2018-12-17T05:02:58.321Z,11.10
2018-12-17T05:05:39.737Z,11.10
2018-12-17T05:08:21.445Z,11.10
2018-12-17T05:11:04.649Z,11.10
2018-12-17T05:13:46.421Z,11.10
2018-12-17T05:16:28.872Z,11.00
2018-12-17T05:19:09.903Z,11.00
2018-12-17T05:21:51.389Z,11.00
2018-12-17T05:24:33.274Z,11.00
2018-12-17T05:27:15.079Z,11.00
2018-12-17T05:29:57.091Z,11.00
2018-12-17T05:32:38.766Z,11.00
2018-12-17T05:35:20.575Z,10.90
2018-12-17T05:38:02.358Z,11.00
2018-12-17T05:40:43.790Z,11.00
2018-12-17T05:43:25.635Z,11.00
2018-12-17T05:46:07.128Z,11.00
2018-12-17T05:48:48.747Z,11.00
2018-12-17T05:51:30.203Z,11.00
2018-12-17T05:54:11.716Z,11.00
2018-12-17T05:56:53.907Z,10.90
2018-12-17T05:59:35.271Z,10.90
2018-12-17T06:02:16.857Z,10.90
2018-12-17T06:04:58.683Z,11.10
2018-12-17T06:07:40.026Z,11.30
2018-12-17T06:10:22.033Z,11.30
2018-12-17T06:13:03.518Z,11.30
2018-12-17T06:15:45.826Z,11.30
2018-12-17T06:18:26.924Z,11.20
2018-12-17T06:21:08.891Z,11.10
2018-12-17T06:23:50.086Z,11.00
2018-12-17T06:26:31.565Z,11.00
2018-12-17T06:29:13.294Z,11.00
2018-12-17T06:31:55.050Z,11.00
2018-12-17T06:34:36.332Z,11.10
2018-12-17T06:37:17.817Z,11.10
2018-12-17T06:39:59.756Z,11.10
2018-12-17T06:42:41.350Z,11.10
2018-12-17T06:45:23.097Z,11.20
2018-12-17T06:48:04.686Z,11.10
2018-12-17T06:50:46.480Z,11.10
2018-12-17T06:53:28.066Z,11.00
2018-12-17T06:56:09.761Z,11.00
2018-12-17T06:58:51.286Z,11.00
2018-12-17T07:01:33.755Z,10.90
2018-12-17T07:04:15.752Z,10.90
2018-12-17T07:06:57.342Z,10.90
2018-12-17T07:09:38.736Z,10.80
2018-12-17T07:12:20.932Z,10.80
2018-12-17T07:15:01.908Z,10.80
2018-12-17T07:17:43.497Z,10.80
2018-12-17T07:20:26.003Z,10.80
2018-12-17T07:23:07.591Z,10.80
2018-12-17T07:25:49.385Z,10.80
2018-12-17T07:28:31.087Z,10.80
2018-12-17T07:31:13.078Z,10.90
2018-12-17T07:33:54.163Z,10.90
2018-12-17T07:36:35.636Z,11.00
2018-12-17T07:39:17.638Z,11.50
2018-12-17T07:41:59.350Z,12.20
2018-12-17T07:44:40.916Z,13.00
2018-12-17T07:47:22.301Z,13.80
2018-12-17T07:50:03.376Z,14.50
2018-12-17T07:52:45.588Z,15.20
2018-12-17T07:55:26.663Z,15.90
2018-12-17T07:58:08.499Z,16.60
2018-12-17T08:00:50.139Z,17.20
2018-12-17T08:03:32.053Z,17.50
2018-12-17T08:06:13.727Z,17.80
2018-12-17T08:08:55.316Z,18.10
2018-12-17T08:11:37.115Z,18.40
2018-12-17T08:14:19.659Z,19.00
2018-12-17T08:17:01.413Z,19.80
2018-12-17T08:19:42.514Z,20.20
2018-12-17T08:22:24.302Z,20.70
2018-12-17T08:25:05.770Z,21.10
2018-12-17T08:27:47.859Z,21.90
2018-12-17T08:30:29.203Z,22.10
2018-12-17T08:33:10.843Z,22.80
2018-12-17T08:35:52.476Z,23.60
2018-12-17T08:38:34.378Z,24.10
2018-12-17T08:41:15.918Z,24.50
2018-12-17T08:43:57.449Z,24.80
2018-12-17T08:46:38.800Z,25.00
2018-12-17T08:49:20.786Z,25.00
2018-12-17T08:52:02.414Z,24.60
2018-12-17T08:54:44.493Z,24.90
2018-12-17T08:57:25.673Z,25.20
2018-12-17T09:00:11.034Z,26.00
2018-12-17T09:02:51.266Z,25.90
2018-12-17T09:05:32.499Z,26.40
2018-12-17T09:08:14.263Z,26.80
2018-12-17T09:10:55.954Z,27.00
2018-12-17T09:13:37.466Z,27.60
2018-12-17T09:16:19.131Z,27.90
2018-12-17T09:19:00.970Z,26.90
2018-12-17T09:21:42.823Z,26.90
2018-12-17T09:24:24.128Z,27.20
2018-12-17T09:27:05.793Z,27.10
2018-12-17T09:29:47.280Z,27.40
2018-12-17T09:32:28.974Z,28.20
2018-12-17T09:35:10.662Z,28.30
2018-12-17T09:37:52.364Z,28.20
2018-12-17T09:40:34.146Z,29.10
2018-12-17T09:43:15.326Z,30.00
2018-12-17T09:45:56.819Z,30.70
2018-12-17T09:48:38.401Z,31.30
2018-12-17T09:51:19.922Z,31.20
2018-12-17T09:54:01.511Z,30.60
2018-12-17T09:56:43.064Z,30.70
2018-12-17T09:59:24.651Z,30.80
2018-12-17T10:02:06.175Z,29.30
2018-12-17T10:04:47.629Z,29.90
2018-12-17T10:07:30.504Z,29.60
2018-12-17T10:10:12.134Z,29.90
2018-12-17T10:12:53.622Z,29.60
2018-12-17T10:15:34.288Z,30.10
2018-12-17T10:18:16.082Z,30.90
2018-12-17T10:20:57.670Z,31.30
2018-12-17T10:23:39.604Z,32.10
2018-12-17T10:26:21.461Z,33.00
2018-12-17T10:29:03.094Z,33.40
2018-12-17T10:31:44.024Z,33.60
2018-12-17T10:34:26.741Z,34.00
2018-12-17T10:37:08.431Z,34.30
2018-12-17T10:39:50.942Z,34.40
2018-12-17T10:42:33.394Z,34.90
2018-12-17T10:45:15.347Z,35.10
2018-12-17T10:47:56.736Z,35.10
2018-12-17T10:50:38.119Z,35.40
2018-12-17T10:53:20.116Z,35.30
2018-12-17T10:56:01.703Z,34.60
2018-12-17T10:58:43.446Z,34.20
2018-12-17T11:01:34.011Z,33.50
2018-12-17T11:04:21.357Z,32.50
2018-12-17T11:07:03.047Z,31.50
2018-12-17T11:09:44.467Z,31.10
2018-12-17T11:12:25.979Z,30.70
2018-12-17T11:15:07.671Z,30.20
2018-12-17T11:17:49.362Z,29.20
2018-12-17T11:20:30.951Z,28.30
2018-12-17T11:23:12.565Z,27.50
2018-12-17T11:25:54.757Z,25.90
2018-12-17T11:28:36.638Z,24.60
2018-12-17T11:31:17.717Z,23.80
2018-12-17T11:33:59.509Z,23.20
2018-12-17T11:36:41.337Z,22.60
2018-12-17T11:39:22.995Z,22.10
2018-12-17T11:42:04.707Z,21.50
2018-12-17T11:44:46.275Z,20.90
2018-12-17T11:47:28.075Z,20.70
2018-12-17T11:50:10.017Z,20.50
2018-12-17T11:52:51.348Z,20.40
2018-12-17T11:55:33.035Z,20.20
2018-12-17T11:58:14.882Z,20.10
2018-12-17T12:01:02.156Z,19.80
2018-12-17T12:03:44.460Z,19.70
2018-12-17T12:06:25.539Z,19.50
2018-12-17T12:09:07.140Z,19.20
2018-12-17T12:11:48.940Z,19.20
2018-12-17T12:14:30.508Z,19.20
2018-12-17T12:17:12.029Z,19.10
2018-12-17T12:19:53.583Z,19.40
2018-12-17T12:22:35.377Z,19.90
2018-12-17T12:25:17.086Z,20.70
2018-12-17T12:27:58.558Z,21.10
2018-12-17T12:30:40.452Z,21.50
2018-12-17T12:33:21.937Z,21.40
2018-12-17T12:36:03.632Z,21.10
2018-12-17T12:38:45.118Z,21.10
2018-12-17T12:41:26.601Z,20.90
2018-12-17T12:44:08.923Z,20.60
2018-12-17T12:46:50.636Z,20.50
2018-12-17T12:49:32.587Z,20.70
2018-12-17T12:52:14.436Z,21.00
2018-12-17T12:54:56.388Z,21.30
2018-12-17T12:57:37.771Z,22.00
2018-12-17T13:00:19.248Z,22.80
2018-12-17T13:03:01.054Z,23.50
2018-12-17T13:05:42.640Z,24.30
2018-12-17T13:08:24.640Z,24.80
2018-12-17T13:11:06.475Z,24.50
2018-12-17T13:13:48.841Z,23.70
2018-12-17T13:16:30.687Z,22.40
2018-12-17T13:19:11.814Z,21.10
2018-12-17T13:21:54.455Z,20.10
2018-12-17T13:24:37.381Z,19.30
2018-12-17T13:27:18.832Z,18.70
2018-12-17T13:30:00.319Z,18.30
2018-12-17T13:32:42.640Z,18.00
2018-12-17T13:35:25.550Z,17.70
2018-12-17T13:38:07.511Z,17.40
2018-12-17T13:40:49.417Z,17.20
2018-12-17T13:43:31.018Z,17.10
2018-12-17T13:46:12.207Z,16.80
2018-12-17T13:48:54.117Z,16.60
2018-12-17T13:51:37.434Z,16.60
2018-12-17T13:54:19.985Z,16.40
2018-12-17T13:57:01.123Z,16.30
2018-12-17T13:59:42.521Z,16.20
2018-12-17T14:02:24.401Z,16.20
2018-12-17T14:05:05.994Z,16.00
2018-12-17T14:07:47.685Z,15.90
2018-12-17T14:10:34.186Z,15.90
2018-12-17T14:13:15.757Z,15.80
2018-12-17T14:16:01.975Z,15.60
2018-12-17T14:18:48.682Z,15.70
2018-12-17T14:21:35.398Z,15.60
2018-12-17T14:24:17.120Z,15.50
2018-12-17T14:26:58.585Z,15.50
2018-12-17T14:29:40.360Z,15.50
2018-12-17T14:32:22.775Z,15.50
2018-12-17T14:35:05.587Z,15.50
2018-12-17T14:37:52.572Z,15.50
2018-12-17T14:40:34.133Z,15.40
2018-12-17T14:43:15.678Z,15.40
2018-12-17T14:45:57.266Z,15.40
2018-12-17T14:48:38.795Z,15.30
2018-12-17T14:51:20.251Z,15.40
2018-12-17T14:54:02.138Z,15.30
2018-12-17T14:56:44.338Z,15.20
2018-12-17T14:59:25.670Z,15.20
2018-12-17T15:02:07.040Z,15.10
2018-12-17T15:04:48.795Z,15.00
2018-12-17T15:07:30.306Z,14.90
2018-12-17T15:10:12.178Z,14.90
2018-12-17T15:12:53.664Z,14.80
2018-12-17T15:15:35.252Z,14.80
2018-12-17T15:18:16.654Z,14.80
2018-12-17T15:20:58.533Z,14.80
2018-12-17T15:23:40.587Z,14.70
2018-12-17T15:26:21.917Z,14.70
2018-12-17T15:29:03.536Z,14.70
2018-12-17T15:31:45.097Z,14.60
2018-12-17T15:34:26.887Z,14.60
2018-12-17T15:37:08.785Z,14.50
2018-12-17T15:39:50.167Z,14.40
2018-12-17T15:42:32.007Z,14.40
2018-12-17T15:45:13.759Z,14.40
2018-12-17T15:47:55.343Z,14.30
2018-12-17T15:50:37.079Z,14.30
2018-12-17T15:53:19.141Z,14.20
2018-12-17T15:56:00.386Z,14.10
2018-12-17T15:58:42.211Z,14.10
2018-12-17T16:01:23.700Z,14.00
2018-12-17T16:04:06.228Z,13.80
2018-12-17T16:06:47.382Z,13.80
2018-12-17T16:09:29.076Z,13.80
2018-12-17T16:12:11.750Z,13.80
2018-12-17T16:14:53.505Z,13.70
2018-12-17T16:17:35.789Z,13.70
2018-12-17T16:20:16.969Z,13.80
2018-12-17T16:22:58.296Z,13.80
2018-12-17T16:25:40.706Z,13.80
2018-12-17T16:28:21.846Z,13.70
2018-12-17T16:31:03.320Z,13.60
2018-12-17T16:33:45.113Z,13.50
2018-12-17T16:36:26.600Z,13.50
2018-12-17T16:39:08.226Z,13.40
2018-12-17T16:41:49.997Z,13.40
2018-12-17T16:44:31.673Z,13.50
2018-12-17T16:47:13.571Z,13.50
2018-12-17T16:49:54.990Z,13.50
2018-12-17T16:52:36.952Z,13.50
2018-12-17T16:55:18.540Z,13.40
2018-12-17T16:58:00.231Z,13.40
2018-12-17T17:00:41.857Z,13.30
2018-12-17T17:03:23.717Z,13.20
2018-12-17T17:06:05.617Z,13.20
2018-12-17T17:08:47.867Z,13.10
2018-12-17T17:11:29.132Z,12.90
2018-12-17T17:14:11.006Z,12.90
2018-12-17T17:16:53.331Z,12.90
2018-12-17T17:19:34.584Z,12.80
2018-12-17T17:22:16.168Z,12.80
2018-12-17T17:24:57.989Z,12.70
2018-12-17T17:27:39.755Z,12.70
2018-12-17T17:30:21.259Z,12.60
2018-12-17T17:33:03.140Z,12.60
2018-12-17T17:35:44.829Z,12.60
2018-12-17T17:38:26.729Z,12.60
2018-12-17T17:41:08.008Z,12.60
2018-12-17T17:43:50.445Z,12.60
2018-12-17T17:46:31.543Z,12.50
2018-12-17T17:49:13.320Z,12.50
2018-12-17T17:51:54.814Z,12.50
2018-12-17T17:54:37.076Z,12.50
2018-12-17T17:57:18.078Z,12.50
2018-12-17T18:00:00.461Z,12.40
2018-12-17T18:02:41.740Z,12.30
2018-12-17T18:05:23.432Z,12.30
2018-12-17T18:08:05.130Z,12.20
2018-12-17T18:10:46.749Z,12.20
2018-12-17T18:13:28.234Z,12.10
2018-12-17T18:16:09.580Z,12.10
2018-12-17T18:18:51.273Z,12.10
2018-12-17T18:21:33.209Z,12.10
2018-12-17T18:24:14.884Z,12.10
2018-12-17T18:26:56.144Z,12.10
2018-12-17T18:29:37.934Z,12.10
2018-12-17T18:32:25.713Z,12.20
2018-12-17T18:35:03.262Z,12.20
2018-12-17T18:37:44.999Z,12.10
2018-12-17T18:40:26.542Z,12.10
2018-12-17T18:43:08.443Z,12.10
2018-12-17T18:45:49.743Z,12.10
2018-12-17T18:48:31.310Z,12.10
2018-12-17T18:51:12.819Z,12.10
2018-12-17T18:53:54.581Z,12.10
2018-12-17T18:56:36.587Z,12.10
2018-12-17T18:59:17.909Z,12.10
2018-12-17T19:01:59.458Z,12.10
2018-12-17T19:04:40.942Z,12.20
2018-12-17T19:07:22.742Z,12.20
2018-12-17T19:10:04.433Z,12.10
2018-12-17T19:12:46.015Z,12.10
2018-12-17T19:15:27.328Z,12.10
2018-12-17T19:18:09.090Z,12.10
2018-12-17T19:20:51.230Z,12.10
2018-12-17T19:23:32.169Z,12.00
2018-12-17T19:26:14.088Z,12.00
2018-12-17T19:28:55.922Z,12.00
2018-12-17T19:31:37.660Z,12.00
2018-12-17T19:34:19.442Z,12.00
2018-12-17T19:37:01.596Z,11.90
2018-12-17T19:39:42.654Z,11.90
2018-12-17T19:42:24.414Z,11.90
2018-12-17T19:45:06.008Z,11.90
2018-12-17T19:47:47.596Z,11.90
2018-12-17T19:50:29.076Z,11.90
2018-12-17T19:53:10.768Z,11.90
2018-12-17T19:55:52.767Z,11.90
2018-12-17T19:58:35.080Z,11.90
2018-12-17T20:01:17.486Z,11.90
2018-12-17T20:03:59.172Z,11.90
2018-12-17T20:06:40.920Z,11.90
2018-12-17T20:09:22.759Z,11.90
2018-12-17T20:12:04.449Z,12.00
2018-12-17T20:14:46.038Z,12.00
2018-12-17T20:17:28.484Z,11.90
2018-12-17T20:20:10.450Z,11.90
2018-12-17T20:22:52.047Z,11.90
2018-12-17T20:25:33.827Z,11.90
2018-12-17T20:28:15.415Z,11.80
2018-12-17T20:30:57.024Z,11.80
2018-12-17T20:33:38.796Z,11.80
2018-12-17T20:36:20.548Z,11.70
2018-12-17T20:39:01.898Z,11.70
2018-12-17T20:41:43.869Z,11.70
2018-12-17T20:44:25.368Z,11.70
2018-12-17T20:47:07.049Z,11.70
2018-12-17T20:49:48.637Z,11.70
2018-12-17T20:52:30.535Z,11.70
2018-12-17T20:55:13.249Z,11.70
2018-12-17T20:57:55.682Z,11.70
2018-12-17T21:00:37.244Z,11.60
2018-12-17T21:03:19.054Z,11.60
2018-12-17T21:06:00.628Z,11.70
2018-12-17T21:08:42.219Z,11.70
2018-12-17T21:11:24.463Z,11.60
2018-12-17T21:14:05.786Z,11.60
2018-12-17T21:16:47.391Z,11.60
2018-12-17T21:19:29.084Z,11.60
2018-12-17T21:22:11.614Z,11.60
2018-12-17T21:24:53.389Z,11.60
2018-12-17T21:27:34.981Z,11.60
2018-12-17T21:30:16.499Z,11.60
2018-12-17T21:32:58.254Z,11.60
2018-12-17T21:35:40.150Z,11.50
2018-12-17T21:38:21.738Z,11.50
2018-12-17T21:41:03.593Z,11.50
2018-12-17T21:43:45.051Z,11.40
2018-12-17T21:46:26.815Z,11.40
2018-12-17T21:49:08.506Z,11.30
2018-12-17T21:51:50.199Z,11.30
2018-12-17T21:54:31.499Z,11.20
2018-12-17T21:57:13.370Z,11.20
2018-12-17T21:59:54.979Z,11.10
2018-12-17T22:02:36.758Z,11.10
2018-12-17T22:05:18.486Z,11.00
2018-12-17T22:08:00.138Z,11.00
2018-12-17T22:10:42.909Z,10.90
2018-12-17T22:13:24.541Z,10.90
2018-12-17T22:16:06.129Z,10.90
2018-12-17T22:18:48.026Z,10.80
2018-12-17T22:21:29.410Z,10.90
2018-12-17T22:24:11.396Z,10.80
2018-12-17T22:26:52.950Z,10.80
2018-12-17T22:29:34.383Z,10.70
2018-12-17T22:32:16.072Z,10.60
2018-12-17T22:34:57.662Z,10.60
2018-12-17T22:37:39.250Z,10.50
2018-12-17T22:40:20.842Z,10.50
2018-12-17T22:43:02.430Z,10.50
2018-12-17T22:45:44.427Z,10.50
2018-12-17T22:48:25.910Z,10.50
2018-12-17T22:51:07.294Z,10.50
2018-12-17T22:53:49.227Z,10.50
2018-12-17T22:56:30.893Z,10.50
2018-12-17T22:59:12.600Z,10.60
2018-12-17T23:01:54.263Z,10.60
2018-12-17T23:04:36.061Z,10.60
2018-12-17T23:07:17.750Z,10.60
2018-12-17T23:09:59.235Z,10.50
2018-12-17T23:12:41.539Z,10.50
2018-12-17T23:15:22.718Z,10.50
2018-12-17T23:18:04.616Z,10.50
2018-12-17T23:20:46.004Z,10.50
2018-12-17T23:23:27.898Z,10.50
2018-12-17T23:26:09.794Z,10.50
2018-12-17T23:28:51.178Z,10.40
2018-12-17T23:31:32.765Z,10.40
2018-12-17T23:34:14.250Z,10.40
2018-12-17T23:36:56.047Z,10.40
2018-12-17T23:39:37.633Z,10.40
2018-12-17T23:42:20.708Z,10.40
2018-12-17T23:45:02.344Z,10.40
2018-12-17T23:47:43.904Z,10.40
2018-12-17T23:50:25.651Z,10.40
2018-12-17T23:53:06.803Z,10.40
2018-12-17T23:55:48.294Z,10.40
2018-12-17T23:58:30.084Z,10.40
